createdAt,value
2018-05-07T00:00:17.535Z,14.27
2018-05-07T00:02:45.097Z,14.29
2018-05-07T00:05:12.754Z,14.29
2018-05-07T00:07:40.285Z,14.29
2018-05-07T00:10:07.794Z,14.27
2018-05-07T00:12:35.292Z,14.24
2018-05-07T00:15:02.801Z,14.24
2018-05-07T00:17:30.296Z,14.21
2018-05-07T00:19:58.293Z,14.15
2018-05-07T00:22:25.778Z,13.94
2018-05-07T00:24:53.866Z,13.92
2018-05-07T00:27:21.345Z,13.63
2018-05-07T00:29:49.174Z,13.68
2018-05-07T00:32:17.034Z,13.44
2018-05-07T00:34:44.582Z,13.45
2018-05-07T00:37:12.085Z,13.40
2018-05-07T00:39:40.431Z,13.41
2018-05-07T00:42:07.921Z,13.38
2018-05-07T00:44:35.407Z,13.31
2018-05-07T00:47:02.926Z,13.19
2018-05-07T00:49:30.391Z,13.08
2018-05-07T00:51:59.049Z,13.07
2018-05-07T00:54:26.938Z,13.09
2018-05-07T00:56:54.489Z,13.00
2018-05-07T00:59:22.171Z,12.98
2018-05-07T01:01:49.734Z,13.02
2018-05-07T01:04:17.222Z,13.05
2018-05-07T01:06:44.736Z,13.12
2018-05-07T01:09:12.447Z,13.16
2018-05-07T01:11:40.003Z,13.13
2018-05-07T01:14:07.474Z,13.06
2018-05-07T01:16:36.764Z,13.03
2018-05-07T01:19:04.285Z,13.04
2018-05-07T01:21:31.794Z,13.01
2018-05-07T01:23:59.370Z,12.91
2018-05-07T01:26:26.879Z,12.77
2018-05-07T01:28:54.943Z,12.65
2018-05-07T01:31:22.477Z,12.53
2018-05-07T01:33:49.970Z,12.47
2018-05-07T01:36:17.471Z,12.44
2018-05-07T01:38:44.945Z,12.43
2018-05-07T01:41:12.446Z,12.43
2018-05-07T01:43:40.063Z,12.48
2018-05-07T01:46:07.602Z,12.49
2018-05-07T01:48:35.067Z,12.18
2018-05-07T01:51:02.549Z,12.09
2018-05-07T01:53:30.041Z,12.13
2018-05-07T01:55:57.553Z,12.18
2018-05-07T01:58:25.039Z,12.18
2018-05-07T02:00:52.513Z,12.20
2018-05-07T02:03:20.029Z,12.18
2018-05-07T02:05:47.533Z,12.18
2018-05-07T02:08:15.245Z,12.13
2018-05-07T02:10:42.706Z,12.07
2018-05-07T02:13:10.214Z,12.07
2018-05-07T02:15:38.086Z,12.07
2018-05-07T02:18:05.581Z,12.08
2018-05-07T02:20:33.999Z,12.02
2018-05-07T02:23:01.733Z,11.94
2018-05-07T02:25:29.481Z,12.00
2018-05-07T02:27:57.365Z,11.95
2018-05-07T02:30:24.853Z,11.91
2018-05-07T02:32:52.406Z,11.84
2018-05-07T02:35:19.896Z,11.85
2018-05-07T02:37:47.398Z,11.78
2018-05-07T02:40:14.859Z,11.71
2018-05-07T02:42:42.362Z,11.69
2018-05-07T02:45:09.826Z,11.67
2018-05-07T02:47:37.301Z,11.64
2018-05-07T02:50:04.771Z,11.60
2018-05-07T02:52:32.268Z,11.50
2018-05-07T02:54:59.735Z,11.49
2018-05-07T02:57:27.219Z,11.47
2018-05-07T02:59:54.690Z,11.44
2018-05-07T03:02:22.164Z,11.44
2018-05-07T03:04:49.625Z,11.42
2018-05-07T03:07:17.106Z,11.39
2018-05-07T03:09:44.562Z,11.38
2018-05-07T03:12:12.105Z,11.34
2018-05-07T03:14:39.569Z,11.32
2018-05-07T03:17:07.059Z,11.29
2018-05-07T03:19:34.530Z,11.28
2018-05-07T03:22:02.005Z,11.30
2018-05-07T03:24:29.462Z,11.24
2018-05-07T03:26:56.950Z,11.26
2018-05-07T03:29:24.412Z,11.22
2018-05-07T03:31:51.879Z,11.16
2018-05-07T03:34:19.362Z,11.09
2018-05-07T03:36:46.845Z,11.00
2018-05-07T03:39:14.330Z,10.89
2018-05-07T03:41:41.803Z,10.86
2018-05-07T03:44:09.338Z,10.75
2018-05-07T03:46:36.803Z,10.79
2018-05-07T03:49:04.287Z,10.69
2018-05-07T03:51:31.749Z,10.74
2018-05-07T03:53:59.288Z,10.77
2018-05-07T03:56:26.721Z,10.71
2018-05-07T03:58:54.202Z,10.75
2018-05-07T04:01:21.673Z,10.71
2018-05-07T04:03:49.178Z,10.72
2018-05-07T04:06:16.645Z,10.76
2018-05-07T04:08:44.118Z,10.74
2018-05-07T04:11:11.602Z,10.70
2018-05-07T04:13:39.062Z,10.65
2018-05-07T04:16:06.569Z,10.67
2018-05-07T04:18:45.907Z,10.75
2018-05-07T04:21:14.926Z,10.87
2018-05-07T04:24:05.153Z,10.91
2018-05-07T04:26:32.634Z,10.97
2018-05-07T04:29:00.090Z,10.98
2018-05-07T04:31:27.577Z,11.02
2018-05-07T04:33:55.033Z,11.06
2018-05-07T04:36:22.546Z,11.14
2018-05-07T04:38:50.002Z,11.20
2018-05-07T04:41:17.473Z,11.28
2018-05-07T04:43:44.953Z,11.28
2018-05-07T04:46:12.413Z,11.33
2018-05-07T04:48:39.902Z,11.43
2018-05-07T04:51:07.370Z,11.57
2018-05-07T04:53:34.850Z,11.69
2018-05-07T04:56:02.302Z,11.81
2018-05-07T04:58:29.787Z,11.96
2018-05-07T05:00:57.256Z,12.06
2018-05-07T05:03:24.759Z,12.20
2018-05-07T05:05:52.242Z,12.31
2018-05-07T05:08:19.725Z,12.43
2018-05-07T05:10:47.210Z,12.66
2018-05-07T05:13:14.678Z,12.78
2018-05-07T05:15:42.158Z,12.89
2018-05-07T05:18:09.610Z,13.15
2018-05-07T05:20:37.094Z,13.17
2018-05-07T05:23:04.579Z,13.30
2018-05-07T05:25:32.062Z,13.39
2018-05-07T05:27:59.533Z,13.66
2018-05-07T05:30:27.012Z,13.94
2018-05-07T05:32:54.485Z,14.17
2018-05-07T05:35:21.969Z,14.42
2018-05-07T05:37:49.426Z,14.63
2018-05-07T05:40:16.983Z,14.85
2018-05-07T05:42:44.459Z,15.05
2018-05-07T05:45:11.942Z,15.20
2018-05-07T05:47:39.573Z,15.37
2018-05-07T05:50:07.147Z,15.52
2018-05-07T05:52:34.530Z,15.66
2018-05-07T05:55:02.022Z,15.72
2018-05-07T05:57:29.485Z,15.69
2018-05-07T05:59:56.963Z,15.77
2018-05-07T06:02:24.421Z,15.75
2018-05-07T06:04:54.786Z,15.81
2018-05-07T06:07:22.257Z,15.85
2018-05-07T06:09:49.750Z,15.96
2018-05-07T06:12:17.218Z,16.02
2018-05-07T06:14:44.859Z,16.13
2018-05-07T06:17:12.242Z,16.19
2018-05-07T06:19:39.737Z,16.32
2018-05-07T06:22:07.196Z,16.39
2018-05-07T06:24:34.661Z,16.50
2018-05-07T06:27:02.146Z,16.58
2018-05-07T06:29:29.614Z,16.72
2018-05-07T06:31:57.090Z,16.86
2018-05-07T06:34:24.648Z,16.92
2018-05-07T06:36:52.113Z,17.11
2018-05-07T06:39:19.541Z,17.26
2018-05-07T06:41:47.039Z,17.59
2018-05-07T06:44:14.501Z,17.84
2018-05-07T06:46:42.000Z,18.02
2018-05-07T06:49:09.490Z,18.02
2018-05-07T06:51:36.970Z,18.18
2018-05-07T06:54:04.433Z,18.36
2018-05-07T06:56:31.909Z,18.49
2018-05-07T06:58:59.370Z,18.61
2018-05-07T07:01:26.851Z,18.71
2018-05-07T07:03:54.306Z,18.79
2018-05-07T07:06:21.834Z,18.92
2018-05-07T07:08:49.350Z,19.02
2018-05-07T07:11:17.049Z,19.10
2018-05-07T07:13:45.381Z,19.23
2018-05-07T07:16:12.902Z,19.32
2018-05-07T07:18:40.388Z,19.30
2018-05-07T07:21:08.093Z,19.43
2018-05-07T07:23:36.207Z,19.44
2018-05-07T07:26:04.206Z,19.40
2018-05-07T07:28:31.666Z,19.64
2018-05-07T07:30:59.214Z,19.74
2018-05-07T07:33:27.399Z,19.85
2018-05-07T07:35:55.043Z,19.73
2018-05-07T07:38:23.001Z,19.91
2018-05-07T07:40:50.506Z,20.07
2018-05-07T07:43:19.608Z,20.16
2018-05-07T07:45:47.134Z,20.12
2018-05-07T07:48:14.589Z,19.99
2018-05-07T07:50:42.079Z,20.14
2018-05-07T07:53:09.582Z,20.33
2018-05-07T07:55:37.386Z,20.57
2018-05-07T07:58:04.907Z,20.57
2018-05-07T08:00:32.404Z,20.61
2018-05-07T08:02:59.922Z,20.55
2018-05-07T08:05:27.807Z,20.66
2018-05-07T08:07:55.543Z,20.92
2018-05-07T08:10:23.001Z,21.02
2018-05-07T08:12:50.821Z,21.17
2018-05-07T08:15:18.535Z,21.32
2018-05-07T08:17:46.093Z,21.42
2018-05-07T08:20:13.582Z,21.61
2018-05-07T08:22:41.165Z,21.74
2018-05-07T08:25:08.697Z,21.84
2018-05-07T08:27:37.409Z,21.89
2018-05-07T08:30:05.217Z,21.80
2018-05-07T08:32:32.717Z,22.04
2018-05-07T08:35:00.655Z,21.87
2018-05-07T08:37:28.230Z,21.68
2018-05-07T08:39:56.138Z,21.66
2018-05-07T08:42:23.632Z,22.03
2018-05-07T08:44:51.170Z,22.25
2018-05-07T08:47:19.265Z,21.95
2018-05-07T08:49:47.041Z,22.09
2018-05-07T08:52:15.393Z,22.23
2018-05-07T08:54:43.422Z,21.91
2018-05-07T08:57:11.002Z,21.96
2018-05-07T08:59:38.732Z,21.89
2018-05-07T09:02:06.384Z,22.00
2018-05-07T09:04:34.365Z,21.91
2018-05-07T09:07:02.335Z,21.90
2018-05-07T09:09:30.751Z,22.08
2018-05-07T09:11:58.478Z,22.28
2018-05-07T09:14:25.932Z,22.43
2018-05-07T09:16:53.438Z,22.48
2018-05-07T09:19:20.951Z,22.60
2018-05-07T09:21:48.449Z,22.63
2018-05-07T09:24:15.977Z,22.53
2018-05-07T09:26:43.478Z,22.66
2018-05-07T09:29:10.982Z,22.76
2018-05-07T09:31:38.511Z,22.84
2018-05-07T09:34:06.021Z,22.66
2018-05-07T09:36:33.768Z,22.65
2018-05-07T09:39:01.690Z,22.62
2018-05-07T09:41:29.782Z,22.87
2018-05-07T09:43:57.646Z,22.86
2018-05-07T09:46:25.358Z,23.03
2018-05-07T09:48:53.845Z,22.80
2018-05-07T09:51:21.498Z,23.01
2018-05-07T09:53:49.007Z,23.11
2018-05-07T09:56:16.522Z,23.16
2018-05-07T09:58:55.979Z,23.18
2018-05-07T10:01:23.868Z,23.29
2018-05-07T10:03:51.364Z,23.40
2018-05-07T10:06:19.162Z,23.21
2018-05-07T10:08:46.690Z,23.04
2018-05-07T10:11:15.029Z,23.28
2018-05-07T10:13:42.510Z,23.33
2018-05-07T10:16:10.026Z,23.48
2018-05-07T10:18:37.543Z,23.42
2018-05-07T10:21:05.046Z,23.64
2018-05-07T10:23:32.907Z,23.54
2018-05-07T10:26:00.369Z,23.52
2018-05-07T10:28:27.946Z,23.75
2018-05-07T10:30:55.716Z,23.72
2018-05-07T10:33:23.405Z,23.52
2018-05-07T10:35:50.868Z,23.77
2018-05-07T10:38:18.354Z,23.94
2018-05-07T10:40:45.826Z,24.03
2018-05-07T10:43:13.349Z,24.18
2018-05-07T10:45:40.806Z,24.05
2018-05-07T10:48:08.338Z,24.10
2018-05-07T10:50:35.824Z,24.20
2018-05-07T10:53:03.554Z,24.17
2018-05-07T10:55:31.442Z,24.47
2018-05-07T10:57:58.960Z,24.65
2018-05-07T11:00:26.539Z,24.66
2018-05-07T11:02:54.055Z,24.50
2018-05-07T11:05:21.629Z,24.71
2018-05-07T11:07:49.179Z,24.75
2018-05-07T11:10:17.407Z,24.90
2018-05-07T11:12:44.912Z,24.84
2018-05-07T11:15:12.402Z,24.83
2018-05-07T11:17:39.861Z,25.02
2018-05-07T11:20:07.347Z,25.19
2018-05-07T11:22:34.815Z,25.23
2018-05-07T11:25:02.315Z,25.41
2018-05-07T11:27:29.770Z,25.45
2018-05-07T11:29:57.245Z,24.63
2018-05-07T11:32:25.633Z,24.41
2018-05-07T11:34:53.124Z,24.86
2018-05-07T11:37:20.596Z,25.30
2018-05-07T11:39:48.091Z,25.35
2018-05-07T11:42:15.556Z,25.56
2018-05-07T11:44:43.051Z,25.24
2018-05-07T11:47:10.514Z,25.69
2018-05-07T11:49:38.013Z,25.44
2018-05-07T11:52:05.482Z,25.77
2018-05-07T11:54:32.973Z,26.02
2018-05-07T11:57:00.441Z,26.11
2018-05-07T11:59:28.015Z,25.93
2018-05-07T12:01:55.473Z,25.90
2018-05-07T12:04:22.963Z,25.86
2018-05-07T12:06:50.426Z,26.14
2018-05-07T12:09:17.979Z,26.53
2018-05-07T12:11:45.443Z,26.33
2018-05-07T12:14:12.942Z,25.71
2018-05-07T12:16:40.419Z,26.01
2018-05-07T12:19:07.909Z,26.09
2018-05-07T12:21:35.370Z,25.77
2018-05-07T12:24:02.834Z,26.11
2018-05-07T12:26:30.317Z,26.30
2018-05-07T12:28:57.785Z,26.15
2018-05-07T12:31:25.359Z,26.68
2018-05-07T12:33:52.755Z,27.12
2018-05-07T12:36:20.231Z,27.24
2018-05-07T12:38:47.703Z,27.58
2018-05-07T12:41:15.188Z,27.76
2018-05-07T12:43:42.650Z,27.64
2018-05-07T12:46:10.138Z,27.91
2018-05-07T12:48:37.602Z,28.22
2018-05-07T12:51:05.082Z,28.31
2018-05-07T12:53:32.555Z,28.68
2018-05-07T12:56:00.029Z,28.46
2018-05-07T12:58:27.498Z,28.95
2018-05-07T13:00:54.987Z,29.34
2018-05-07T13:03:22.456Z,29.52
2018-05-07T13:05:49.949Z,29.92
2018-05-07T13:08:17.421Z,30.18
2018-05-07T13:10:44.907Z,31.62
2018-05-07T13:13:12.383Z,32.73
2018-05-07T13:15:39.865Z,33.99
2018-05-07T13:18:07.331Z,34.24
2018-05-07T13:20:34.841Z,34.84
2018-05-07T13:23:02.320Z,34.94
2018-05-07T13:25:30.234Z,34.60
2018-05-07T13:27:57.707Z,36.35
2018-05-07T13:30:25.190Z,37.21
2018-05-07T13:32:53.586Z,37.50
2018-05-07T13:35:21.096Z,36.61
2018-05-07T13:37:48.561Z,37.02
2018-05-07T13:40:16.042Z,38.00
2018-05-07T13:42:43.807Z,37.95
2018-05-07T13:45:11.285Z,36.52
2018-05-07T13:47:38.773Z,37.32
2018-05-07T13:50:06.239Z,38.32
2018-05-07T13:52:33.739Z,38.56
2018-05-07T13:55:01.207Z,38.80
2018-05-07T13:57:28.695Z,38.74
2018-05-07T13:59:56.250Z,37.39
2018-05-07T14:02:24.362Z,38.59
2018-05-07T14:04:51.837Z,38.61
2018-05-07T14:07:19.318Z,38.30
2018-05-07T14:09:46.796Z,39.08
2018-05-07T14:12:14.279Z,39.02
2018-05-07T14:14:41.746Z,39.27
2018-05-07T14:17:09.232Z,39.43
2018-05-07T14:19:36.949Z,39.72
2018-05-07T14:22:04.430Z,39.22
2018-05-07T14:24:31.886Z,40.09
2018-05-07T14:26:59.383Z,38.14
2018-05-07T14:29:26.854Z,38.20
2018-05-07T14:31:54.380Z,39.36
2018-05-07T14:34:21.856Z,40.09
2018-05-07T14:36:49.346Z,39.26
2018-05-07T14:39:16.805Z,38.13
2018-05-07T14:41:44.340Z,38.40
2018-05-07T14:44:11.874Z,38.61
2018-05-07T14:46:39.363Z,38.34
2018-05-07T14:49:06.829Z,38.86
2018-05-07T14:51:34.327Z,37.48
2018-05-07T14:54:01.796Z,38.24
2018-05-07T14:56:29.303Z,39.12
2018-05-07T14:58:56.775Z,39.16
2018-05-07T15:01:24.258Z,37.81
2018-05-07T15:03:51.718Z,38.73
2018-05-07T15:06:19.203Z,37.36
2018-05-07T15:08:46.678Z,36.63
2018-05-07T15:11:14.166Z,38.36
2018-05-07T15:13:41.685Z,39.40
2018-05-07T15:16:09.140Z,36.92
2018-05-07T15:18:36.630Z,35.94
2018-05-07T15:21:04.091Z,37.20
2018-05-07T15:23:31.587Z,36.55
2018-05-07T15:25:59.056Z,36.23
2018-05-07T15:28:26.538Z,37.74
2018-05-07T15:30:54.010Z,36.32
2018-05-07T15:33:21.499Z,36.27
2018-05-07T15:35:48.957Z,36.88
2018-05-07T15:38:16.446Z,38.47
2018-05-07T15:40:43.916Z,39.27
2018-05-07T15:43:11.406Z,40.15
2018-05-07T15:45:38.880Z,37.62
2018-05-07T15:48:06.390Z,37.37
2018-05-07T15:50:33.859Z,39.09
2018-05-07T15:53:01.349Z,38.64
2018-05-07T15:55:28.818Z,38.59
2018-05-07T15:57:56.310Z,39.59
2018-05-07T16:00:23.783Z,39.86
2018-05-07T16:02:51.447Z,40.37
2018-05-07T16:05:18.799Z,38.57
2018-05-07T16:07:47.126Z,38.40
2018-05-07T16:10:14.594Z,37.81
2018-05-07T16:12:42.092Z,38.38
2018-05-07T16:15:09.612Z,38.06
2018-05-07T16:17:37.062Z,39.80
2018-05-07T16:20:05.518Z,40.02
2018-05-07T16:22:33.035Z,40.13
2018-05-07T16:25:00.505Z,40.33
2018-05-07T16:27:28.029Z,39.41
2018-05-07T16:29:56.417Z,39.95
2018-05-07T16:32:23.942Z,39.31
2018-05-07T16:34:51.418Z,40.50
2018-05-07T16:37:18.881Z,40.36
2018-05-07T16:39:46.372Z,37.56
2018-05-07T16:42:13.841Z,38.73
2018-05-07T16:44:41.329Z,39.22
2018-05-07T16:47:08.793Z,39.24
2018-05-07T16:49:36.282Z,39.99
2018-05-07T16:52:03.756Z,39.66
2018-05-07T16:54:31.322Z,39.23
2018-05-07T16:56:58.806Z,39.44
2018-05-07T16:59:26.711Z,38.80
2018-05-07T17:01:54.177Z,38.50
2018-05-07T17:04:22.594Z,35.78
2018-05-07T17:06:50.078Z,33.30
2018-05-07T17:09:17.562Z,31.18
2018-05-07T17:11:45.038Z,29.90
2018-05-07T17:14:12.644Z,29.21
2018-05-07T17:16:40.043Z,28.07
2018-05-07T17:19:07.540Z,27.23
2018-05-07T17:21:35.198Z,26.96
2018-05-07T17:24:02.541Z,26.99
2018-05-07T17:26:30.011Z,26.35
2018-05-07T17:28:57.502Z,26.58
2018-05-07T17:31:24.966Z,26.47
2018-05-07T17:33:52.509Z,26.34
2018-05-07T17:36:19.982Z,26.35
2018-05-07T17:38:47.462Z,26.12
2018-05-07T17:41:14.930Z,26.16
2018-05-07T17:43:42.639Z,25.99
2018-05-07T17:46:18.790Z,25.86
2018-05-07T17:48:55.283Z,25.79
2018-05-07T17:51:22.753Z,25.56
2018-05-07T17:53:50.246Z,25.43
2018-05-07T17:56:17.712Z,25.30
2018-05-07T17:58:45.169Z,25.13
2018-05-07T18:01:12.656Z,25.09
2018-05-07T18:03:40.114Z,25.80
2018-05-07T18:06:07.611Z,28.36
2018-05-07T18:08:35.093Z,30.49
2018-05-07T18:11:03.430Z,31.97
2018-05-07T18:13:30.893Z,32.60
2018-05-07T18:15:58.374Z,32.02
2018-05-07T18:18:25.838Z,31.06
2018-05-07T18:20:53.310Z,30.29
2018-05-07T18:23:20.774Z,29.72
2018-05-07T18:25:48.254Z,28.86
2018-05-07T18:28:16.288Z,27.66
2018-05-07T18:30:43.773Z,26.64
2018-05-07T18:33:11.230Z,26.13
2018-05-07T18:35:38.713Z,25.55
2018-05-07T18:38:06.262Z,25.01
2018-05-07T18:40:33.659Z,24.49
2018-05-07T18:43:01.119Z,24.06
2018-05-07T18:45:28.610Z,23.72
2018-05-07T18:47:56.157Z,23.43
2018-05-07T18:50:25.504Z,23.19
2018-05-07T18:52:53.010Z,22.87
2018-05-07T18:55:20.489Z,22.55
2018-05-07T18:57:47.946Z,22.26
2018-05-07T19:00:15.426Z,22.09
2018-05-07T19:02:42.893Z,21.84
2018-05-07T19:05:10.377Z,21.76
2018-05-07T19:07:37.842Z,21.62
2018-05-07T19:10:05.337Z,21.42
2018-05-07T19:12:32.810Z,21.27
2018-05-07T19:15:00.293Z,21.08
2018-05-07T19:17:35.461Z,20.96
2018-05-07T19:20:02.948Z,20.83
2018-05-07T19:22:30.410Z,20.64
2018-05-07T19:24:57.901Z,20.55
2018-05-07T19:27:25.370Z,20.45
2018-05-07T19:29:52.865Z,20.32
2018-05-07T19:32:20.354Z,20.19
2018-05-07T19:34:47.890Z,20.12
2018-05-07T19:37:15.374Z,20.02
2018-05-07T19:39:42.841Z,19.84
2018-05-07T19:42:10.343Z,19.76
2018-05-07T19:44:37.826Z,19.66
2018-05-07T19:47:05.313Z,19.59
2018-05-07T19:49:32.771Z,19.34
2018-05-07T19:52:00.256Z,19.31
2018-05-07T19:54:27.722Z,19.26
2018-05-07T19:56:55.201Z,19.23
2018-05-07T19:59:22.667Z,19.16
2018-05-07T20:01:50.195Z,19.10
2018-05-07T20:04:17.653Z,19.05
2018-05-07T20:06:45.129Z,18.89
2018-05-07T20:09:12.633Z,18.63
2018-05-07T20:11:40.125Z,18.73
2018-05-07T20:14:07.659Z,18.68
2018-05-07T20:16:35.083Z,18.67
2018-05-07T20:19:02.556Z,18.61
2018-05-07T20:21:30.054Z,18.53
2018-05-07T20:23:57.520Z,18.47
2018-05-07T20:26:25.003Z,18.21
2018-05-07T20:28:52.469Z,18.14
2018-05-07T20:31:19.976Z,17.88
2018-05-07T20:33:47.461Z,17.74
2018-05-07T20:36:14.950Z,17.69
2018-05-07T20:38:42.418Z,17.49
2018-05-07T20:41:09.951Z,17.25
2018-05-07T20:43:37.394Z,17.27
2018-05-07T20:46:04.874Z,17.34
2018-05-07T20:48:32.337Z,17.40
2018-05-07T20:50:59.818Z,17.36
2018-05-07T20:53:27.284Z,17.33
2018-05-07T20:55:54.741Z,17.26
2018-05-07T20:58:22.272Z,17.24
2018-05-07T21:00:49.741Z,17.24
2018-05-07T21:03:17.221Z,17.13
2018-05-07T21:05:44.689Z,17.11
2018-05-07T21:08:12.178Z,17.07
2018-05-07T21:10:39.646Z,17.01
2018-05-07T21:13:07.129Z,16.97
2018-05-07T21:15:34.599Z,16.89
2018-05-07T21:18:02.088Z,16.30
2018-05-07T21:20:29.549Z,16.49
2018-05-07T21:22:58.982Z,16.35
2018-05-07T21:25:26.445Z,15.98
2018-05-07T21:27:53.948Z,15.76
2018-05-07T21:30:21.418Z,15.87
2018-05-07T21:32:48.901Z,15.90
2018-05-07T21:35:16.386Z,15.97
2018-05-07T21:37:43.866Z,15.86
2018-05-07T21:40:11.331Z,15.92
2018-05-07T21:42:38.817Z,15.99
2018-05-07T21:45:06.287Z,15.98
2018-05-07T21:47:33.768Z,15.89
2018-05-07T21:50:01.231Z,15.97
2018-05-07T21:52:28.726Z,16.04
2018-05-07T21:54:56.198Z,16.07
2018-05-07T21:57:23.702Z,15.99
2018-05-07T21:59:51.170Z,16.02
2018-05-07T22:02:18.716Z,16.01
2018-05-07T22:04:46.130Z,16.03
2018-05-07T22:07:13.609Z,15.99
2018-05-07T22:09:41.086Z,15.92
2018-05-07T22:12:08.570Z,15.88
2018-05-07T22:14:36.139Z,15.80
2018-05-07T22:17:03.610Z,15.78
2018-05-07T22:19:31.084Z,15.72
2018-05-07T22:21:58.560Z,15.71
2018-05-07T22:24:26.045Z,15.74
2018-05-07T22:26:53.511Z,15.64
2018-05-07T22:29:20.998Z,15.52
2018-05-07T22:31:48.457Z,15.56
2018-05-07T22:34:15.950Z,15.56
2018-05-07T22:36:43.413Z,15.56
2018-05-07T22:39:10.944Z,15.56
2018-05-07T22:41:38.381Z,15.59
2018-05-07T22:44:05.863Z,15.55
2018-05-07T22:46:33.336Z,15.32
2018-05-07T22:49:00.877Z,15.15
2018-05-07T22:51:28.313Z,14.93
2018-05-07T22:53:55.815Z,14.97
2018-05-07T22:56:23.294Z,14.97
2018-05-07T22:58:50.778Z,15.02
2018-05-07T23:01:18.246Z,15.01
2018-05-07T23:03:45.741Z,14.89
2018-05-07T23:06:13.219Z,14.96
2018-05-07T23:08:40.698Z,14.95
2018-05-07T23:11:08.177Z,14.94
2018-05-07T23:13:35.654Z,14.95
2018-05-07T23:16:03.118Z,14.93
2018-05-07T23:18:30.609Z,14.95
2018-05-07T23:20:58.069Z,14.91
2018-05-07T23:23:25.557Z,14.90
2018-05-07T23:25:53.014Z,14.91
2018-05-07T23:28:20.497Z,14.89
2018-05-07T23:30:47.966Z,14.78
2018-05-07T23:33:15.528Z,14.84
2018-05-07T23:35:43.001Z,14.83
2018-05-07T23:38:10.479Z,14.79
2018-05-07T23:40:37.981Z,14.83
2018-05-07T23:43:05.438Z,14.77
2018-05-07T23:45:32.927Z,14.71
2018-05-07T23:48:00.387Z,14.44
2018-05-07T23:50:27.874Z,14.24
2018-05-07T23:52:55.338Z,14.11
2018-05-07T23:55:22.818Z,14.45
2018-05-07T23:57:50.282Z,14.11
